Time;durP1;ratioP1;P1;durP2;ratioP2;P2;SDS_P1;SDS_P2;PMS_P1;PMS_P2;Temp;Humidity;BMP_temperature;BMP_pressure;BME280_temperature;BME280_humidity;BME280_pressure;Samples;Min_cycle;Max_cycle;Signal;HPM_P1;HPM_P2
2023/10/29 00:02:13;;;;;;;0.10;0.10;;;10.90;99.90;;;;;;4828489;29;20106;-71
2023/10/29 00:04:39;;;;;;;0.10;0.10;;;10.90;99.90;;;;;;4823165;29;20475;-71
2023/10/29 00:07:04;;;;;;;0.10;0.10;;;11.00;99.90;;;;;;4814515;29;20054;-71
2023/10/29 00:09:30;;;;;;;0.10;0.10;;;10.90;99.90;;;;;;4830119;29;20659;-71
2023/10/29 00:11:56;;;;;;;0.13;0.13;;;10.90;99.90;;;;;;4829472;29;20057;-69
2023/10/29 00:14:22;;;;;;;0.13;0.13;;;11.00;99.90;;;;;;4828962;29;20129;-71
2023/10/29 00:16:48;;;;;;;0.13;0.13;;;11.00;99.90;;;;;;4816388;29;20632;-70
2023/10/29 00:19:13;;;;;;;0.10;0.10;;;11.00;99.90;;;;;;4825288;29;20148;-71
2023/10/29 00:21:39;;;;;;;0.10;0.10;;;11.00;99.90;;;;;;4821036;29;20058;-71
2023/10/29 00:24:05;;;;;;;0.10;0.10;;;11.00;99.90;;;;;;4830867;29;20049;-70
2023/10/29 00:26:31;;;;;;;0.10;0.10;;;11.00;99.90;;;;;;4815891;29;20161;-70
2023/10/29 00:28:57;;;;;;;0.17;0.17;;;11.10;99.90;;;;;;4815561;29;20573;-71
2023/10/29 00:31:23;;;;;;;0.20;0.20;;;11.00;99.90;;;;;;4816801;29;20548;-70
2023/10/29 00:33:49;;;;;;;0.20;0.20;;;11.10;99.90;;;;;;4817587;29;20050;-70
2023/10/29 00:36:15;;;;;;;0.20;0.20;;;11.00;99.90;;;;;;4819173;29;20051;-70
2023/10/29 00:38:41;;;;;;;0.10;0.10;;;11.10;99.90;;;;;;4817305;29;20050;-71
2023/10/29 00:41:07;;;;;;;0.20;0.20;;;11.00;99.90;;;;;;4839294;29;20052;-71
2023/10/29 00:43:43;;;;;;;0.10;0.10;;;11.10;99.90;;;;;;4839307;29;20456;-70
2023/10/29 00:46:11;;;;;;;0.10;0.10;;;11.10;99.90;;;;;;4837741;29;20411;-71
2023/10/29 00:48:37;;;;;;;0.10;0.10;;;11.10;99.90;;;;;;4823147;29;20053;-70
2023/10/29 00:51:03;;;;;;;0.10;0.10;;;11.10;99.90;;;;;;4833686;29;20421;-70
2023/10/29 00:53:30;;;;;;;0.20;0.20;;;11.10;99.90;;;;;;4842828;29;20753;-71
2023/10/29 00:55:58;;;;;;;0.17;0.17;;;11.10;99.90;;;;;;4831304;29;20801;-70
2023/10/29 00:58:24;;;;;;;0.17;0.17;;;11.10;99.90;;;;;;4823737;29;20060;-70
2023/10/29 01:00:50;;;;;;;0.10;0.10;;;11.10;99.90;;;;;;4830534;29;20096;-70
2023/10/29 01:03:18;;;;;;;0.10;0.10;;;11.10;99.90;;;;;;4826992;29;20073;-70
2023/10/29 01:05:47;;;;;;;0.10;0.10;;;11.10;99.90;;;;;;4827655;29;20047;-70
2023/10/29 01:08:14;;;;;;;0.10;0.10;;;11.10;99.90;;;;;;4821630;29;20082;-70
2023/10/29 01:10:40;;;;;;;0.10;0.10;;;11.20;99.90;;;;;;4822780;29;20054;-70
2023/10/29 01:13:05;;;;;;;0.10;0.10;;;11.20;99.90;;;;;;4825467;29;20058;-70
2023/10/29 01:15:32;;;;;;;0.20;0.20;;;11.10;99.90;;;;;;4833514;29;20641;-72
2023/10/29 01:17:58;;;;;;;0.10;0.10;;;11.20;99.90;;;;;;4834698;29;20062;-70
2023/10/29 01:20:24;;;;;;;0.10;0.10;;;11.20;99.90;;;;;;4817987;29;20051;-71
2023/10/29 01:22:50;;;;;;;0.10;0.10;;;11.20;99.90;;;;;;4827127;29;20054;-71
2023/10/29 01:25:15;;;;;;;0.17;0.17;;;11.20;99.90;;;;;;4832549;29;20563;-71
2023/10/29 01:27:42;;;;;;;0.20;0.20;;;11.20;99.90;;;;;;4823194;29;20261;-71
2023/10/29 01:30:08;;;;;;;0.20;0.20;;;11.20;99.90;;;;;;4848208;29;20046;-71
2023/10/29 01:32:34;;;;;;;0.20;0.20;;;11.20;99.90;;;;;;4840056;29;20053;-71
2023/10/29 01:35:00;;;;;;;0.20;0.20;;;11.30;99.90;;;;;;4829929;29;20082;-71
2023/10/29 01:37:25;;;;;;;0.13;0.13;;;11.20;99.90;;;;;;4823887;29;20046;-71
2023/10/29 01:39:51;;;;;;;0.15;0.15;;;11.20;99.90;;;;;;4822475;29;20071;-71
2023/10/29 01:42:17;;;;;;;0.20;0.20;;;11.30;99.90;;;;;;4821298;29;20368;-70
2023/10/29 01:44:42;;;;;;;0.20;0.20;;;11.40;99.90;;;;;;4823503;29;20137;-71
2023/10/29 01:47:08;;;;;;;0.13;0.13;;;11.40;99.90;;;;;;4835463;29;20096;-70
2023/10/29 01:49:34;;;;;;;0.10;0.10;;;11.30;99.90;;;;;;4821914;29;20069;-70
2023/10/29 01:51:59;;;;;;;0.10;0.10;;;11.40;99.90;;;;;;4814713;29;20055;-70
2023/10/29 01:54:25;;;;;;;0.10;0.10;;;11.40;99.90;;;;;;4822980;29;20050;-71
2023/10/29 01:56:51;;;;;;;0.10;0.10;;;11.40;99.90;;;;;;4823271;29;20132;-70
2023/10/29 01:59:16;;;;;;;0.17;0.17;;;11.40;99.90;;;;;;4815107;29;20465;-71
2023/10/29 02:01:42;;;;;;;0.10;0.10;;;11.40;99.90;;;;;;4811603;29;20417;-71
2023/10/29 02:04:09;;;;;;;0.10;0.10;;;11.50;99.90;;;;;;4818423;29;20513;-71
2023/10/29 02:06:38;;;;;;;0.10;0.10;;;11.50;99.90;;;;;;4821868;29;20125;-71
2023/10/29 02:09:05;;;;;;;0.10;0.10;;;11.60;99.90;;;;;;4805826;29;20119;-71
2023/10/29 02:11:31;;;;;;;0.10;0.10;;;11.60;99.90;;;;;;4817074;29;20058;-71
2023/10/29 02:13:56;;;;;;;0.20;0.20;;;11.60;99.90;;;;;;4827923;29;20106;-70
2023/10/29 02:16:23;;;;;;;0.20;0.20;;;11.60;99.90;;;;;;4824992;29;20102;-71
2023/10/29 02:18:49;;;;;;;0.10;0.10;;;11.70;99.90;;;;;;4827751;29;20049;-71
2023/10/29 02:21:15;;;;;;;0.10;0.10;;;11.60;99.90;;;;;;4837158;29;20505;-70
2023/10/29 02:23:40;;;;;;;0.20;0.20;;;11.60;99.90;;;;;;4837434;29;20053;-70
2023/10/29 02:26:06;;;;;;;0.15;0.15;;;11.70;99.90;;;;;;4825713;29;20068;-71
2023/10/29 02:28:32;;;;;;;0.17;0.17;;;11.70;99.90;;;;;;4830401;29;20081;-71
2023/10/29 02:30:57;;;;;;;0.10;0.10;;;11.80;99.90;;;;;;4826715;29;20051;-70
2023/10/29 02:33:23;;;;;;;0.10;0.10;;;11.80;99.90;;;;;;4820042;29;20054;-71
2023/10/29 02:35:49;;;;;;;0.20;0.20;;;11.90;99.90;;;;;;4819131;29;20138;-70
2023/10/29 02:38:16;;;;;;;0.10;0.10;;;11.90;99.90;;;;;;4819548;29;20043;-71
2023/10/29 02:40:43;;;;;;;0.10;0.10;;;11.90;99.90;;;;;;4811133;29;20055;-71
2023/10/29 02:43:10;;;;;;;0.20;0.20;;;11.90;99.90;;;;;;4802357;29;20578;-71
2023/10/29 02:45:36;;;;;;;0.17;0.17;;;12.00;99.90;;;;;;4815070;29;20082;-74
2023/10/29 02:48:01;;;;;;;0.10;0.10;;;12.00;99.90;;;;;;4817222;29;20488;-71
2023/10/29 02:50:27;;;;;;;0.20;0.20;;;12.10;99.90;;;;;;4822771;29;20046;-71
2023/10/29 02:52:53;;;;;;;0.20;0.20;;;12.10;99.90;;;;;;4838051;29;20053;-72
2023/10/29 02:55:18;;;;;;;0.10;0.10;;;12.10;99.90;;;;;;4832860;29;20548;-72
2023/10/29 02:57:44;;;;;;;0.20;0.20;;;12.20;99.90;;;;;;4826781;29;20556;-72
2023/10/29 03:00:12;;;;;;;0.15;0.15;;;12.10;99.90;;;;;;4813365;29;20567;-71
2023/10/29 03:02:38;;;;;;;0.10;0.10;;;12.20;99.90;;;;;;4801390;29;20058;-71
2023/10/29 03:05:04;;;;;;;0.10;0.10;;;12.10;99.90;;;;;;4826663;29;20061;-71
2023/10/29 03:07:30;;;;;;;0.10;0.10;;;12.10;99.90;;;;;;4819811;29;20050;-70
2023/10/29 03:09:56;;;;;;;0.10;0.10;;;12.10;99.90;;;;;;4816923;29;20972;-71
2023/10/29 03:12:22;;;;;;;0.17;0.17;;;12.20;99.90;;;;;;4836579;29;20050;-70
2023/10/29 03:14:47;;;;;;;0.10;0.10;;;12.10;99.90;;;;;;4836951;29;20046;-71
2023/10/29 03:17:13;;;;;;;0.10;0.10;;;12.10;99.90;;;;;;4834540;29;20522;-71
2023/10/29 03:19:39;;;;;;;0.20;0.20;;;12.20;99.90;;;;;;4823529;29;20578;-71
2023/10/29 03:22:04;;;;;;;0.20;0.20;;;12.10;99.90;;;;;;4823353;29;20087;-71
2023/10/29 03:24:30;;;;;;;0.10;0.10;;;12.10;99.90;;;;;;4819217;29;20050;-71
2023/10/29 03:26:56;;;;;;;0.20;0.20;;;12.10;99.90;;;;;;4826086;29;20054;-71
2023/10/29 03:29:22;;;;;;;0.15;0.15;;;12.10;99.90;;;;;;4816036;29;20050;-71
2023/10/29 03:31:47;;;;;;;0.10;0.10;;;12.10;99.90;;;;;;4830967;29;20141;-71
2023/10/29 03:34:13;;;;;;;0.20;0.20;;;12.20;99.90;;;;;;4831279;29;20152;-71
2023/10/29 03:36:39;;;;;;;0.10;0.10;;;12.10;99.90;;;;;;4828053;29;20053;-71
2023/10/29 03:39:05;;;;;;;0.10;0.10;;;12.20;99.90;;;;;;4818797;29;20047;-71
2023/10/29 03:41:31;;;;;;;0.10;0.10;;;12.20;99.90;;;;;;4818541;29;20447;-70
2023/10/29 03:43:57;;;;;;;0.10;0.10;;;12.10;99.90;;;;;;4827152;29;20073;-71
2023/10/29 03:46:22;;;;;;;0.20;0.20;;;12.10;99.90;;;;;;4832688;29;20076;-70
2023/10/29 03:48:48;;;;;;;0.20;0.20;;;12.20;99.90;;;;;;4830596;29;20038;-70
2023/10/29 03:51:14;;;;;;;0.10;0.10;;;12.10;99.90;;;;;;4828381;29;20238;-71
2023/10/29 03:53:40;;;;;;;0.10;0.10;;;12.10;99.90;;;;;;4835263;29;20142;-71
2023/10/29 03:56:06;;;;;;;0.10;0.10;;;12.10;99.90;;;;;;4824476;29;20228;-70
2023/10/29 03:58:32;;;;;;;0.10;0.10;;;12.10;99.90;;;;;;4822804;29;20061;-69
2023/10/29 04:01:01;;;;;;;0.20;0.20;;;12.10;99.90;;;;;;4814396;29;20066;-69
2023/10/29 04:03:27;;;;;;;0.20;0.20;;;12.20;99.90;;;;;;4818570;29;20053;-69
2023/10/29 04:05:54;;;;;;;0.20;0.20;;;12.10;99.90;;;;;;4817825;29;20050;-70
2023/10/29 04:08:19;;;;;;;0.20;0.20;;;12.10;99.90;;;;;;4818169;29;20050;-71
2023/10/29 04:10:45;;;;;;;0.10;0.10;;;12.10;99.90;;;;;;4817764;29;20520;-71
2023/10/29 04:13:11;;;;;;;0.10;0.10;;;12.20;99.90;;;;;;4817745;29;20087;-71
2023/10/29 04:15:36;;;;;;;0.10;0.10;;;12.20;99.90;;;;;;4819237;29;20042;-71
2023/10/29 04:18:02;;;;;;;0.20;0.20;;;12.20;99.90;;;;;;4832501;29;20042;-71
2023/10/29 04:20:28;;;;;;;0.10;0.10;;;12.30;99.90;;;;;;4807061;29;20455;-71
2023/10/29 04:22:54;;;;;;;0.10;0.10;;;12.30;99.90;;;;;;4824725;29;20583;-71
2023/10/29 04:25:19;;;;;;;0.20;0.20;;;12.30;99.90;;;;;;4822377;29;20522;-71
2023/10/29 04:27:45;;;;;;;0.10;0.10;;;12.30;99.90;;;;;;4828220;29;20050;-71
2023/10/29 04:30:11;;;;;;;0.10;0.10;;;12.30;99.90;;;;;;4813384;29;20134;-71
2023/10/29 04:32:37;;;;;;;0.10;0.10;;;12.40;99.90;;;;;;4826504;29;20050;-71
2023/10/29 04:35:03;;;;;;;0.10;0.10;;;12.40;99.90;;;;;;4823144;29;20129;-70
2023/10/29 04:37:28;;;;;;;0.10;0.10;;;12.40;99.90;;;;;;4822024;29;20134;-71
2023/10/29 04:39:54;;;;;;;0.10;0.10;;;12.40;99.90;;;;;;4813752;29;20133;-70
2023/10/29 04:42:20;;;;;;;0.10;0.10;;;12.40;99.90;;;;;;4844508;29;20206;-71
2023/10/29 04:44:45;;;;;;;0.20;0.20;;;12.50;99.90;;;;;;4823562;29;20058;-71
2023/10/29 04:47:11;;;;;;;0.10;0.10;;;12.50;99.90;;;;;;4827324;29;20045;-70
2023/10/29 04:49:37;;;;;;;0.17;0.17;;;12.50;99.90;;;;;;4815341;29;20046;-70
2023/10/29 04:52:03;;;;;;;0.10;0.10;;;12.60;99.90;;;;;;4819372;29;20053;-70
2023/10/29 04:54:28;;;;;;;0.10;0.10;;;12.50;99.90;;;;;;4816233;29;20134;-70
2023/10/29 04:56:54;;;;;;;0.20;0.20;;;12.50;99.90;;;;;;4816157;29;20543;-70
2023/10/29 04:59:22;;;;;;;0.17;0.17;;;12.40;99.90;;;;;;4813199;29;20040;-70
2023/10/29 05:01:48;;;;;;;0.10;0.10;;;12.40;99.90;;;;;;4827944;29;20058;-70
2023/10/29 05:04:13;;;;;;;0.10;0.10;;;12.40;99.90;;;;;;4821857;29;20054;-70
2023/10/29 05:06:39;;;;;;;0.13;0.13;;;12.30;99.90;;;;;;4818018;29;20057;-70
2023/10/29 05:09:05;;;;;;;0.10;0.10;;;12.30;99.90;;;;;;4811181;29;20054;-70
2023/10/29 05:11:31;;;;;;;0.10;0.10;;;12.20;99.90;;;;;;4816526;29;20550;-70
2023/10/29 05:13:57;;;;;;;0.10;0.10;;;12.40;99.90;;;;;;4816452;29;20084;-69
2023/10/29 05:16:23;;;;;;;0.10;0.10;;;12.20;99.90;;;;;;4817105;29;20440;-70
2023/10/29 05:18:49;;;;;;;0.10;0.10;;;12.20;99.90;;;;;;4828948;29;20061;-71
2023/10/29 05:21:14;;;;;;;0.20;0.20;;;12.10;99.90;;;;;;4822467;29;20400;-70
2023/10/29 05:23:40;;;;;;;0.10;0.10;;;12.20;99.90;;;;;;4832873;29;20157;-71
2023/10/29 05:26:06;;;;;;;0.10;0.10;;;12.10;99.90;;;;;;4833194;29;20050;-70
2023/10/29 05:28:32;;;;;;;0.17;0.17;;;12.10;99.90;;;;;;4816614;29;20173;-70
2023/10/29 05:30:57;;;;;;;0.10;0.10;;;12.10;99.90;;;;;;4816927;29;20435;-71
2023/10/29 05:33:23;;;;;;;0.10;0.10;;;12.00;99.90;;;;;;4818573;29;20081;-70
2023/10/29 05:35:48;;;;;;;0.10;0.10;;;12.00;99.90;;;;;;4830457;29;20102;-70
2023/10/29 05:38:14;;;;;;;0.20;0.20;;;12.00;99.90;;;;;;4820994;29;20055;-71
2023/10/29 05:40:40;;;;;;;0.20;0.20;;;11.90;99.90;;;;;;4832210;29;20061;-70
2023/10/29 05:43:06;;;;;;;0.20;0.20;;;11.90;99.90;;;;;;4821072;29;20137;-71
2023/10/29 05:45:31;;;;;;;0.20;0.20;;;11.90;99.90;;;;;;4837663;29;20140;-71
2023/10/29 05:47:58;;;;;;;0.20;0.20;;;11.90;99.90;;;;;;4839629;29;20065;-71
2023/10/29 05:50:24;;;;;;;0.20;0.20;;;11.90;99.90;;;;;;4838773;29;20052;-71
2023/10/29 05:52:50;;;;;;;0.20;0.20;;;11.90;99.90;;;;;;4823683;29;20046;-70
2023/10/29 05:55:18;;;;;;;0.10;0.10;;;11.90;99.90;;;;;;4819739;29;20145;-69
2023/10/29 05:57:44;;;;;;;0.20;0.20;;;11.80;99.90;;;;;;4826311;29;20057;-70
2023/10/29 06:00:11;;;;;;;0.20;0.20;;;11.90;99.90;;;;;;4829665;29;20414;-69
2023/10/29 06:02:38;;;;;;;0.10;0.10;;;11.90;99.90;;;;;;4813599;29;20054;-69
2023/10/29 06:05:05;;;;;;;0.10;0.10;;;11.80;99.90;;;;;;4815723;29;20402;-70
2023/10/29 06:07:31;;;;;;;0.20;0.20;;;11.80;99.90;;;;;;4833549;29;20112;-70
2023/10/29 06:09:56;;;;;;;0.10;0.10;;;11.90;99.90;;;;;;4831123;29;20086;-70
2023/10/29 06:12:23;;;;;;;0.13;0.13;;;11.90;99.90;;;;;;4812177;29;20509;-69
2023/10/29 06:14:49;;;;;;;0.15;0.15;;;11.90;99.90;;;;;;4821107;29;20490;-70
2023/10/29 06:17:16;;;;;;;0.10;0.10;;;11.80;99.90;;;;;;4816999;29;20086;-70
2023/10/29 06:19:42;;;;;;;0.10;0.10;;;11.80;99.90;;;;;;4811909;29;20098;-69
2023/10/29 06:22:08;;;;;;;0.10;0.10;;;11.90;99.90;;;;;;4813398;29;20059;-69
2023/10/29 06:24:34;;;;;;;0.10;0.10;;;11.90;99.90;;;;;;4817252;29;20051;-69
2023/10/29 06:27:00;;;;;;;0.10;0.10;;;12.00;99.90;;;;;;4820548;29;20145;-69
2023/10/29 06:29:25;;;;;;;0.10;0.10;;;12.00;99.90;;;;;;4816815;29;20129;-69
2023/10/29 06:31:51;;;;;;;0.20;0.20;;;12.00;99.90;;;;;;4820535;29;20043;-69
2023/10/29 06:34:17;;;;;;;0.10;0.10;;;12.00;99.90;;;;;;4822800;29;20058;-72
2023/10/29 06:36:42;;;;;;;0.15;0.15;;;12.10;99.90;;;;;;4818277;29;20132;-72
2023/10/29 06:39:08;;;;;;;0.10;0.10;;;12.00;99.90;;;;;;4817383;29;20074;-69
2023/10/29 06:41:33;;;;;;;0.10;0.10;;;12.10;99.90;;;;;;4814261;29;20184;-69
2023/10/29 06:43:59;;;;;;;0.10;0.10;;;12.10;99.90;;;;;;4816361;29;20126;-69
2023/10/29 06:46:25;;;;;;;0.10;0.10;;;12.10;99.90;;;;;;4813649;29;20054;-72
2023/10/29 06:48:51;;;;;;;0.10;0.10;;;12.10;99.90;;;;;;4808447;29;20582;-72
2023/10/29 06:51:19;;;;;;;0.20;0.20;;;12.10;99.90;;;;;;4823653;29;20057;-82
2023/10/29 06:53:45;;;;;;;0.20;0.20;;;12.10;99.90;;;;;;4823367;29;20467;-87
2023/10/29 06:56:11;;;;;;;0.10;0.10;;;12.10;99.90;;;;;;4818215;29;20046;-84
2023/10/29 06:58:38;;;;;;;0.10;0.10;;;12.10;99.90;;;;;;4816146;29;20390;-84
2023/10/29 07:01:10;;;;;;;0.10;0.10;;;12.10;99.90;;;;;;4820411;29;20042;-91
2023/10/29 07:03:42;;;;;;;0.10;0.10;;;12.10;99.90;;;;;;4816304;29;20042;-84
2023/10/29 07:06:11;;;;;;;0.10;0.10;;;12.10;99.90;;;;;;4820130;29;20054;-85
2023/10/29 07:08:38;;;;;;;0.10;0.10;;;12.10;99.90;;;;;;4819765;29;20050;-87
2023/10/29 07:11:04;;;;;;;0.10;0.10;;;12.10;99.90;;;;;;4812827;29;20058;-88
2023/10/29 07:13:31;;;;;;;0.10;0.10;;;12.20;99.90;;;;;;4823733;29;20061;-87
2023/10/29 07:15:58;;;;;;;0.10;0.10;;;12.20;99.90;;;;;;4821704;29;20517;-89
2023/10/29 07:18:23;;;;;;;0.10;0.10;;;12.20;99.90;;;;;;4825904;29;20035;-90
2023/10/29 07:20:53;;;;;;;0.10;0.10;;;12.20;99.90;;;;;;4822249;29;20797;-85
2023/10/29 07:23:20;;;;;;;0.10;0.10;;;12.30;99.90;;;;;;4821838;29;20125;-83
2023/10/29 07:25:47;;;;;;;0.10;0.10;;;12.30;99.90;;;;;;4821968;29;20495;-83
2023/10/29 07:28:14;;;;;;;0.15;0.15;;;12.40;99.90;;;;;;4822911;29;20046;-86
2023/10/29 07:30:39;;;;;;;0.10;0.10;;;12.40;99.90;;;;;;4820613;29;20034;-88
2023/10/29 07:33:05;;;;;;;0.20;0.20;;;12.40;99.90;;;;;;4826081;29;20083;-86
2023/10/29 07:35:31;;;;;;;0.10;0.10;;;12.50;99.90;;;;;;4821663;29;20062;-83
2023/10/29 07:37:57;;;;;;;0.13;0.13;;;12.40;99.90;;;;;;4818195;29;20058;-86
2023/10/29 07:40:22;;;;;;;0.10;0.10;;;12.50;99.90;;;;;;4833653;29;20046;-84
2023/10/29 07:42:48;;;;;;;0.20;0.20;;;12.50;99.90;;;;;;4812364;29;20057;-84
2023/10/29 07:45:14;;;;;;;0.20;0.20;;;12.50;99.90;;;;;;4814394;29;20166;-87
2023/10/29 07:47:39;;;;;;;0.10;0.10;;;12.50;99.90;;;;;;4817422;29;20457;-87
2023/10/29 07:50:08;;;;;;;0.10;0.10;;;12.50;99.90;;;;;;4829891;29;20391;-92
2023/10/29 07:52:39;;;;;;;0.10;0.10;;;12.60;99.90;;;;;;4837881;29;20046;-87
2023/10/29 07:55:09;;;;;;;0.10;0.10;;;12.60;99.90;;;;;;4818319;29;20096;-86
2023/10/29 07:57:35;;;;;;;0.17;0.17;;;12.60;99.90;;;;;;4831920;29;20050;-84
2023/10/29 08:00:03;;;;;;;0.20;0.20;;;12.60;99.90;;;;;;4812045;29;20042;-85
2023/10/29 08:02:30;;;;;;;0.10;0.10;;;12.70;99.90;;;;;;4815660;29;20050;-96
2023/10/29 08:04:56;;;;;;;0.10;0.10;;;12.70;99.90;;;;;;4823247;29;20620;-87
2023/10/29 08:07:22;;;;;;;0.10;0.10;;;12.80;99.90;;;;;;4817700;29;20129;-89
2023/10/29 08:09:47;;;;;;;0.20;0.20;;;12.80;99.90;;;;;;4833861;29;20085;-90
2023/10/29 08:12:13;;;;;;;0.20;0.20;;;12.80;99.90;;;;;;4809355;29;20061;-85
2023/10/29 08:14:39;;;;;;;0.15;0.15;;;12.80;99.90;;;;;;4817267;29;20047;-87
2023/10/29 08:17:04;;;;;;;0.10;0.10;;;12.80;99.90;;;;;;4816483;29;20049;-89
2023/10/29 08:19:30;;;;;;;0.10;0.10;;;12.90;99.90;;;;;;4815564;29;20050;-90
2023/10/29 08:21:56;;;;;;;0.10;0.10;;;12.90;99.90;;;;;;4814728;29;20082;-83
2023/10/29 08:24:22;;;;;;;0.20;0.20;;;13.00;99.90;;;;;;4817384;29;20423;-84
2023/10/29 08:26:47;;;;;;;0.10;0.10;;;12.90;99.90;;;;;;4812960;29;20138;-84
2023/10/29 08:29:14;;;;;;;0.10;0.10;;;12.90;99.90;;;;;;4811726;29;20103;-85
2023/10/29 08:31:40;;;;;;;0.10;0.10;;;12.90;99.90;;;;;;4815808;29;20050;-86
2023/10/29 08:34:05;;;;;;;0.10;0.10;;;13.00;99.90;;;;;;4819501;29;20079;-92
2023/10/29 08:36:31;;;;;;;0.10;0.10;;;13.00;99.90;;;;;;4821229;29;20129;-85
2023/10/29 08:38:56;;;;;;;0.20;0.20;;;13.00;99.90;;;;;;4820318;29;20103;-88
2023/10/29 08:41:22;;;;;;;0.10;0.10;;;13.00;99.90;;;;;;4821177;29;20101;-89
2023/10/29 08:43:48;;;;;;;0.10;0.10;;;13.10;99.90;;;;;;4821442;29;20329;-87
2023/10/29 08:46:13;;;;;;;0.10;0.10;;;13.10;99.90;;;;;;4805756;29;20050;-89
2023/10/29 08:48:39;;;;;;;0.10;0.10;;;13.10;99.90;;;;;;4804010;29;20488;-86
2023/10/29 08:51:05;;;;;;;0.10;0.10;;;13.10;99.90;;;;;;4824355;29;20042;-86
2023/10/29 08:53:31;;;;;;;0.15;0.15;;;13.20;99.90;;;;;;4817306;29;20514;-85
2023/10/29 08:55:57;;;;;;;0.10;0.10;;;13.20;99.90;;;;;;4828470;29;20502;-84
2023/10/29 08:58:23;;;;;;;0.10;0.10;;;13.20;99.90;;;;;;4820483;29;20145;-85
2023/10/29 09:00:48;;;;;;;0.10;0.10;;;13.20;99.90;;;;;;4819863;29;20046;-87
2023/10/29 09:03:14;;;;;;;0.13;0.13;;;13.20;99.90;;;;;;4823965;29;20061;-88
2023/10/29 09:05:41;;;;;;;0.15;0.15;;;13.20;99.90;;;;;;4823129;29;20110;-84
2023/10/29 09:08:06;;;;;;;0.10;0.10;;;13.20;99.90;;;;;;4813108;29;20415;-86
2023/10/29 09:10:33;;;;;;;0.10;0.10;;;13.20;99.90;;;;;;4804872;29;20043;-84
2023/10/29 09:13:01;;;;;;;0.20;0.20;;;13.20;99.90;;;;;;4828444;29;20050;-89
2023/10/29 09:15:27;;;;;;;0.20;0.20;;;13.30;99.90;;;;;;4841385;29;20122;-84
2023/10/29 09:17:53;;;;;;;0.10;0.10;;;13.30;99.90;;;;;;4847405;29;20041;-87
2023/10/29 09:20:19;;;;;;;0.17;0.17;;;13.30;99.90;;;;;;4827527;29;20494;-85
2023/10/29 09:22:45;;;;;;;0.10;0.10;;;13.30;99.90;;;;;;4832312;29;20410;-85
2023/10/29 09:25:11;;;;;;;0.10;0.10;;;13.30;99.90;;;;;;4824977;29;20240;-87
2023/10/29 09:27:36;;;;;;;0.20;0.20;;;13.30;99.90;;;;;;4828775;29;20050;-88
2023/10/29 09:30:02;;;;;;;0.10;0.10;;;13.30;99.90;;;;;;4828287;29;20041;-84
2023/10/29 09:32:28;;;;;;;0.10;0.10;;;13.30;99.90;;;;;;4845794;29;20058;-85
2023/10/29 09:34:54;;;;;;;0.20;0.20;;;13.40;99.90;;;;;;4837595;29;20123;-83
2023/10/29 09:37:21;;;;;;;0.20;0.20;;;13.50;99.90;;;;;;4834787;29;20050;-83
2023/10/29 09:39:47;;;;;;;0.20;0.20;;;13.60;99.90;;;;;;4823689;29;20054;-85
2023/10/29 09:42:18;;;;;;;0.20;0.20;;;13.60;99.90;;;;;;4830005;29;20153;-85
2023/10/29 09:44:45;;;;;;;0.20;0.20;;;13.70;99.90;;;;;;4835547;29;20411;-85
2023/10/29 09:47:17;;;;;;;0.10;0.10;;;13.70;99.90;;;;;;4830043;29;20058;-84
2023/10/29 09:49:43;;;;;;;;;;;13.80;99.90;;;;;;4837085;29;20483;-85
2023/10/29 09:52:10;;;;;;;0.10;0.10;;;13.80;99.90;;;;;;4821959;29;19939;-82
2023/10/29 09:54:38;;;;;;;0.10;0.10;;;13.80;99.90;;;;;;4823290;29;20050;-83
2023/10/29 09:57:05;;;;;;;0.20;0.20;;;13.80;99.90;;;;;;4806819;29;20054;-88
2023/10/29 09:59:31;;;;;;;0.10;0.10;;;13.90;99.90;;;;;;4816747;29;20184;-85
2023/10/29 10:01:57;;;;;;;0.10;0.10;;;13.90;99.90;;;;;;4821745;29;20503;-84
2023/10/29 10:04:23;;;;;;;0.20;0.20;;;14.00;99.90;;;;;;4847728;29;20053;-86
2023/10/29 10:06:49;;;;;;;0.10;0.10;;;14.10;99.90;;;;;;4839875;29;20102;-83
2023/10/29 10:09:15;;;;;;;0.10;0.10;;;14.10;99.90;;;;;;4828491;29;20069;-85
2023/10/29 10:11:41;;;;;;;0.20;0.20;;;14.10;99.90;;;;;;4821532;29;20062;-79
2023/10/29 10:14:07;;;;;;;0.10;0.10;;;14.10;99.90;;;;;;4827641;29;20054;-82
2023/10/29 10:16:32;;;;;;;0.17;0.17;;;14.10;99.90;;;;;;4838561;29;20060;-88
2023/10/29 10:18:59;;;;;;;0.10;0.10;;;14.10;99.90;;;;;;4835427;29;20061;-83
2023/10/29 10:21:42;;;;;;;0.10;0.10;;;14.10;99.90;;;;;;4822938;29;20062;-85
2023/10/29 10:24:08;;;;;;;0.20;0.20;;;14.10;99.90;;;;;;4821228;29;20075;-85
2023/10/29 10:26:36;;;;;;;0.10;0.10;;;14.10;99.90;;;;;;4829128;29;20049;-86
2023/10/29 10:29:04;;;;;;;0.10;0.10;;;14.20;99.90;;;;;;4837150;29;20058;-85
2023/10/29 10:31:31;;;;;;;0.20;0.20;;;14.20;99.90;;;;;;4853389;29;20046;-83
2023/10/29 10:34:17;;;;;;;0.20;0.20;;;14.20;99.90;;;;;;4834040;29;20058;-84
2023/10/29 10:36:44;;;;;;;0.20;0.20;;;14.20;99.90;;;;;;4823014;29;20380;-85
2023/10/29 10:39:11;;;;;;;0.10;0.10;;;14.20;99.90;;;;;;4819428;29;20046;-77
2023/10/29 10:41:43;;;;;;;0.20;0.20;;;14.20;99.90;;;;;;4825972;29;20059;-84
2023/10/29 10:44:17;;;;;;;0.20;0.20;;;14.20;99.90;;;;;;4829152;29;20571;-83
2023/10/29 10:46:54;;;;;;;0.20;0.20;;;14.20;99.90;;;;;;4838600;29;20057;-85
2023/10/29 10:49:21;;;;;;;0.10;0.10;;;14.20;99.90;;;;;;4837981;29;20388;-88
2023/10/29 10:51:49;;;;;;;0.10;0.10;;;14.20;99.90;;;;;;4823258;29;20125;-83
2023/10/29 10:54:19;;;;;;;0.10;0.10;;;14.20;99.90;;;;;;4826978;29;20042;-83
2023/10/29 10:56:46;;;;;;;0.10;0.10;;;14.20;99.90;;;;;;4815454;29;20419;-83
2023/10/29 10:59:12;;;;;;;0.10;0.10;;;14.20;99.90;;;;;;4814378;29;20061;-85
2023/10/29 11:01:39;;;;;;;0.38;0.38;;;14.30;99.90;;;;;;4814584;29;20055;-84
2023/10/29 11:04:08;;;;;;;0.20;0.20;;;14.40;99.90;;;;;;4820393;29;20054;-84
2023/10/29 11:06:36;;;;;;;0.20;0.20;;;14.40;99.90;;;;;;4820347;29;20056;-83
2023/10/29 11:09:02;;;;;;;0.20;0.20;;;14.50;99.90;;;;;;4818155;29;20488;-83
2023/10/29 11:11:38;;;;;;;0.10;0.10;;;14.60;99.90;;;;;;4820904;29;20073;-82
2023/10/29 11:14:12;;;;;;;0.13;0.13;;;14.60;99.90;;;;;;4816484;29;20047;-84
2023/10/29 11:16:54;;;;;;;0.10;0.10;;;14.70;99.90;;;;;;4817271;29;20056;-86
2023/10/29 11:19:35;;;;;;;0.10;0.10;;;14.80;99.90;;;;;;4807009;29;20057;-84
2023/10/29 11:22:20;;;;;;;;;;;14.80;99.90;;;;;;4800239;29;20065;-84
2023/10/29 11:25:05;;;;;;;0.20;0.20;;;14.80;99.90;;;;;;4798963;29;19932;-83
2023/10/29 11:27:38;;;;;;;0.10;0.10;;;14.70;99.90;;;;;;4809970;29;21014;-84
2023/10/29 11:30:15;;;;;;;0.13;0.13;;;14.70;99.90;;;;;;4825124;29;20549;-83
2023/10/29 11:32:41;;;;;;;0.20;0.20;;;14.70;99.90;;;;;;4804784;29;20046;-84
2023/10/29 11:35:20;;;;;;;0.20;0.20;;;14.70;99.90;;;;;;4823208;29;20049;-81
2023/10/29 11:37:51;;;;;;;0.20;0.20;;;14.70;99.90;;;;;;4832984;29;20435;-84
2023/10/29 11:40:23;;;;;;;0.20;0.20;;;14.70;99.90;;;;;;4821155;29;20083;-84
2023/10/29 11:42:59;;;;;;;0.20;0.20;;;14.90;99.90;;;;;;4819429;29;20054;-87
2023/10/29 11:45:28;;;;;;;0.20;0.20;;;15.00;99.90;;;;;;4819413;29;20114;-77
2023/10/29 11:48:06;;;;;;;0.10;0.10;;;15.10;99.90;;;;;;4833390;29;20049;-84
2023/10/29 11:50:32;;;;;;;0.10;0.10;;;15.20;99.90;;;;;;4832596;29;20054;-83
2023/10/29 11:52:58;;;;;;;0.20;0.20;;;15.20;99.90;;;;;;4822261;29;20107;-85
2023/10/29 11:55:47;;;;;;;0.20;0.20;;;15.10;99.90;;;;;;4837719;29;20069;-88
2023/10/29 11:58:12;;;;;;;0.10;0.10;;;15.00;99.90;;;;;;4823372;29;20109;-86
2023/10/29 12:00:39;;;;;;;0.10;0.10;;;15.00;99.90;;;;;;4835285;29;20038;-84
2023/10/29 12:03:05;;;;;;;0.20;0.20;;;14.90;99.90;;;;;;4835759;29;20057;-83
2023/10/29 12:05:31;;;;;;;0.20;0.20;;;14.80;99.90;;;;;;4837278;29;20050;-81
2023/10/29 12:08:04;;;;;;;0.20;0.20;;;14.70;99.90;;;;;;4840344;29;20058;-86
2023/10/29 12:10:30;;;;;;;0.20;0.20;;;14.70;99.90;;;;;;4834815;29;20560;-82
2023/10/29 12:12:56;;;;;;;0.20;0.20;;;14.70;99.90;;;;;;4836180;29;20057;-86
2023/10/29 12:15:25;;;;;;;0.20;0.20;;;14.60;99.90;;;;;;4835524;29;20455;-81
2023/10/29 12:17:50;;;;;;;0.20;0.20;;;14.50;99.90;;;;;;4836134;29;20052;-82
2023/10/29 12:20:21;;;;;;;0.20;0.20;;;14.50;99.90;;;;;;4829528;29;20431;-84
2023/10/29 12:22:57;;;;;;;0.20;0.20;;;14.40;99.90;;;;;;4821575;29;20065;-82
2023/10/29 12:25:27;;;;;;;0.20;0.20;;;14.40;99.90;;;;;;4819909;29;20133;-83
2023/10/29 12:27:53;;;;;;;0.20;0.20;;;14.40;99.90;;;;;;4831759;29;20045;-82
2023/10/29 12:30:41;;;;;;;0.20;0.20;;;14.30;99.90;;;;;;4834774;29;20057;-80
2023/10/29 12:33:19;;;;;;;0.20;0.20;;;14.40;99.90;;;;;;4820764;29;20051;-84
2023/10/29 12:35:47;;;;;;;0.20;0.20;;;14.40;99.90;;;;;;4818951;29;20125;-84
2023/10/29 12:38:13;;;;;;;0.20;0.20;;;14.40;99.90;;;;;;4826551;29;20046;-82
2023/10/29 12:41:06;;;;;;;0.20;0.20;;;14.40;99.90;;;;;;4837008;29;20061;-83
2023/10/29 12:43:49;;;;;;;0.20;0.20;;;14.40;99.90;;;;;;4819938;29;20415;-84
2023/10/29 12:46:17;;;;;;;0.10;0.10;;;14.50;99.90;;;;;;4820700;29;20443;-82
2023/10/29 12:49:03;;;;;;;0.20;0.20;;;14.60;99.90;;;;;;4815830;29;20058;-82